Time;durP1;ratioP1;P1;durP2;ratioP2;P2;SDS_P1;SDS_P2;PMS_P1;PMS_P2;Temp;Humidity;BMP_temperature;BMP_pressure;BME280_temperature;BME280_humidity;BME280_pressure;Samples;Min_cycle;Max_cycle;Signal;HPM_P1;HPM_P2
2023/06/19 05:13:05;;;;;;;;;;;;;;;;;;;;;
2023/06/19 05:18:55;;;;;;;9.57;7.43;;;;;;;;;;4664318;30;20046;-84
2023/06/19 05:21:21;;;;;;;12.00;8.30;;;;;;;;;;4692097;30;20488;-82
2023/06/19 05:23:50;;;;;;;11.38;7.88;;;;;;;;;;4712833;30;20055;-82
2023/06/19 05:26:16;;;;;;;13.20;7.55;;;;;;;;;;4751164;30;20047;-84
2023/06/19 05:28:42;;;;;;;13.13;7.60;;;;;;;;;;4752736;30;20071;-84
2023/06/19 05:31:08;;;;;;;11.30;7.05;;;;;;;;;;4747929;30;20047;-84
2023/06/19 05:33:34;;;;;;;11.80;7.32;;;;;;;;;;4772950;30;20106;-82
2023/06/19 05:36:01;;;;;;;14.65;9.57;;;;;;;;;;4752161;30;20484;-84
2023/06/19 05:38:30;;;;;;;18.05;15.98;;;;;;;;;;4768062;30;20106;-82
2023/06/19 05:40:56;;;;;;;21.83;15.27;;;;;;;;;;4752910;30;20051;-82
2023/06/19 05:43:24;;;;;;;12.00;8.35;;;;;;;;;;4765265;30;20063;-82
2023/06/19 05:45:50;;;;;;;10.20;6.88;;;;;;;;;;4761665;30;20047;-82
2023/06/19 05:48:16;;;;;;;10.30;7.30;;;;;;;;;;4770651;30;20054;-80
2023/06/19 05:50:42;;;;;;;9.60;7.43;;;;;;;;;;4748689;30;20062;-80
2023/06/19 08:22:28;;;;;;;12.43;6.47;;;;;;;;;;4755670;29;20071;-81
2023/06/19 09:56:55;;;;;;;9.68;6.05;;;;;;;;;;2901121;24;21298;-81
2023/06/19 09:59:43;;;;;;;12.93;5.72;;;;;;;;;;4779850;29;20070;-85
2023/06/19 10:20:38;;;;;;;9.65;5.40;;;;;;;;;;4777680;30;20062;-82
2023/06/19 11:16:11;;;;;;;32.13;6.50;;;;;;;;;;4996736;24;20438;-80
2023/06/19 11:19:06;;;;;;;9.80;5.90;;;;;;;;;;4768110;30;20051;-80
2023/06/19 11:21:38;;;;;;;15.77;6.97;;;;;;;;;;4763561;30;20043;-80
2023/06/19 11:24:30;;;;;;;10.80;6.75;;;;;;;;;;4777651;29;20519;-80
2023/06/19 11:27:06;;;;;;;;;;;;;;;;;;4781760;30;20048;-80
2023/06/19 11:29:36;;;;;;;15.60;6.78;;;;;;;;;;4765600;30;20021;-80
2023/06/19 11:32:15;;;;;;;9.73;6.30;;;;;;;;;;4768968;30;20066;-80
2023/06/19 11:34:48;;;;;;;12.75;6.88;;;;;;;;;;4768645;30;20045;-81
2023/06/19 11:37:14;;;;;;;11.85;6.35;;;;;;;;;;4786181;30;20044;-81
2023/06/19 11:39:41;;;;;;;14.20;6.43;;;;;;;;;;4784062;29;20051;-81
2023/06/19 11:42:08;;;;;;;12.35;6.28;;;;;;;;;;4770868;30;20509;-81
2023/06/19 11:44:34;;;;;;;9.55;6.72;;;;;;;;;;4786344;30;20043;-81
2023/06/19 11:47:00;;;;;;;12.02;6.65;;;;;;;;;;4770231;30;20200;-81
2023/06/19 11:49:28;;;;;;;14.25;6.68;;;;;;;;;;4770138;30;20449;-81
2023/06/19 11:51:54;;;;;;;11.25;6.85;;;;;;;;;;4779357;30;20047;-81
2023/06/19 11:54:20;;;;;;;11.52;7.05;;;;;;;;;;4776551;30;20039;-80
2023/06/19 11:56:49;;;;;;;9.60;6.28;;;;;;;;;;4770629;30;20127;-81
2023/06/19 11:59:54;;;;;;;12.63;6.45;;;;;;;;;;4785734;30;20636;-80
2023/06/19 12:34:17;;;;;;;12.07;7.05;;;;;;;;;;4757883;30;21090;-80
2023/06/19 12:52:56;;;;;;;13.43;6.45;;;;;;;;;;1188935;27;20051;-79
2023/06/19 12:55:29;;;;;;;11.10;6.10;;;;;;;;;;4807993;29;20054;-80
2023/06/19 12:57:58;;;;;;;9.27;5.68;;;;;;;;;;4802247;29;20056;-80
2023/06/19 13:00:50;;;;;;;12.02;6.35;;;;;;;;;;4820733;29;20136;-79
2023/06/19 13:03:19;;;;;;;11.27;5.55;;;;;;;;;;4795918;29;20584;-80
2023/06/19 13:06:21;;;;;;;;;;;;;;;;;;;;;
2023/06/19 13:09:26;;;;;;;9.63;5.88;;;;;;;;;;4693324;30;20056;-80
2023/06/19 13:12:03;;;;;;;8.57;6.07;;;;;;;;;;4662511;30;20089;-80
2023/06/19 13:14:41;;;;;;;8.00;5.55;;;;;;;;;;4676570;30;20049;-80
2023/06/19 13:23:06;;;;;;;10.77;5.78;;;;;;;;;;3156097;27;20051;-79
2023/06/19 13:25:32;;;;;;;10.30;5.40;;;;;;;;;;4741084;30;20052;-78
2023/06/19 13:27:58;;;;;;;12.23;5.57;;;;;;;;;;4733314;30;20087;-78
2023/06/19 13:30:25;;;;;;;10.27;5.57;;;;;;;;;;4730399;30;20059;-79
2023/06/19 13:32:51;;;;;;;11.32;5.55;;;;;;;;;;4739665;30;20558;-79
2023/06/19 13:35:17;;;;;;;9.23;4.75;;;;;;;;;;4736123;30;20080;-79
2023/06/19 13:37:43;;;;;;;14.13;5.75;;;;;;;;;;4746264;30;20108;-79
2023/06/19 13:40:09;;;;;;;7.07;5.00;;;;;;;;;;4741212;30;20045;-79
2023/06/19 13:47:50;;;;;;;14.00;5.32;;;;;;;;;;4782690;30;20048;-79
2023/06/19 13:50:18;;;;;;;13.05;6.10;;;;;;;;;;4782151;30;20043;-79
2023/06/19 13:52:58;;;;;;;8.25;5.20;;;;;;;;;;4768692;30;20142;-79
2023/06/19 13:55:27;;;;;;;11.68;5.57;;;;;;;;;;4778624;30;20059;-79
2023/06/19 13:57:58;;;;;;;8.15;5.40;;;;;;;;;;4764633;30;20039;-79
2023/06/19 14:00:32;;;;;;;9.45;5.50;;;;;;;;;;4782973;30;20055;-79
2023/06/19 14:03:08;;;;;;;8.23;5.30;;;;;;;;;;4762552;30;20047;-80
2023/06/19 14:08:26;;;;;;;7.70;4.85;;;;;;;;;;4779133;30;20130;-79
2023/06/19 14:10:56;;;;;;;7.63;5.20;;;;;;;;;;4768325;30;20043;-79
2023/06/19 17:10:03;;;;;;;8.32;4.80;;;;;;;;;;1858315;24;21999;-86
